Peers, Canada
Current Conditions -  °F | °C
As of 12:31 PM on Friday 28 Nov 2014 (Local Time) from CYET Reporting Station
Broken Clouds Broken Clouds  
Wind Chill: -28°   Ceiling: 3000
Heat Index: -8°   Visibility: 9mi
Dew Point: -17°   Wind: 14mph
Humidity: 65%   Direction: 310°NW
Pressure: 29.82"   Gusts: NA
Location:  53.68°N, 115.99°W
Report Text: CYET 281931Z AUTO 31012KT 9SM BKN030 M22/M27 A2982 RMK SLP187
Loading
Personal Weather Stations






























Interactive Weather Map New forecast layout! Learn more

10-Day Weather Forecast

Advertisements
Track Severe Weather on mobile